• Join FlightAware (Why Join?)
  • Login
  • US Flag 
01:40AM EDT


 

Airport Tracker/Info


-or-


 

Live Flight TrackerFlight Track Log ✈ N825ST ✈ 08-May-2013 ✈ KFAR - KSTP

Flight Track Log - Related Links

Times and Time Zones

All times are in EDT time to prevent confusion due to time zone crossing. See the N825ST flight status page for this flight to view local times or setup timezone preferences in your user account.

Time Position Orientation Groundspeed Altitude Reporting Facility
EDT Latitude Longitude Course Direction KTS MPH feet Rate Location/Type
08:15PM 46.9300 -96.7656 126° Southeast 170 196 3,900  Level Minneapolis Center
08:16PM 46.8944 -96.7058 131° Southeast 186 214 5,800 1,800 Climbing Minneapolis Center
08:17PM 46.8489 -96.6314 132° Southeast 201 231 8,100 2,160 Climbing Minneapolis Center
08:18PM 46.8108 -96.5694 132° Southeast 198 228 10,300 1,980 Climbing Minneapolis Center
08:19PM 46.7814 -96.5075 125° Southeast 175 201 12,300 1,620 Climbing Minneapolis Center
08:20PM 46.7284 -96.4294 126° Southeast  Level Estimated
08:20PM 46.7619 -96.4542 118° Southeast 182 209 13,700  Level Minneapolis Center
08:21PM 46.7300 -96.3758 121° Southeast 186 214 15,700 1,740 Climbing Minneapolis Center
08:22PM 46.7028 -96.3086 121° Southeast 185 213 17,400 1,500 Climbing Minneapolis Center
08:23PM 46.6781 -96.2481 121° Southeast 183 211 18,800 1,260 Climbing Minneapolis Center
08:24PM 46.6506 -96.1842 122° Southeast 184 212 20,100 1,020 Climbing Minneapolis Center
08:25PM 46.6214 -96.1114 120° Southeast 200 230 21,000 420 Climbing Minneapolis Center
08:26PM 46.5786 -96.0092 121° Southeast 241 277 21,000  Level Minneapolis Center
08:28PM 46.5444 -95.9200 119° Southeast 253 291 21,000  Level Minneapolis Center
08:29PM 46.5075 -95.8336 122° Southeast 252 290 21,000  Level Minneapolis Center
08:30PM 46.4719 -95.7475 121° Southeast 251 289 21,000  Level Minneapolis Center
08:31PM 46.4383 -95.6664 121° Southeast 245 282 21,000  Level Minneapolis Center
08:32PM 46.3967 -95.5703 122° Southeast 238 274 21,000  Level Minneapolis Center
08:33PM 46.3628 -95.4886 121° Southeast 236 272 21,000  Level Minneapolis Center
08:34PM 46.3308 -95.4108 121° Southeast 235 270 21,000  Level Minneapolis Center
08:35PM 46.3042 -95.3461 121° Southeast 235 270 21,000  Level Minneapolis Center
08:36PM 46.2628 -95.2481 121° Southeast 238 274 21,000  Level Minneapolis Center
08:37PM 46.2281 -95.1672 122° Southeast 238 274 21,000  Level Minneapolis Center
08:38PM 46.1919 -95.0822 122° Southeast 239 275 21,000  Level Minneapolis Center
08:39PM 46.1514 -94.9869 122° Southeast 237 273 21,000  Level Minneapolis Center
08:40PM 46.1169 -94.9081 122° Southeast 234 269 21,000  Level Minneapolis Center
08:41PM 46.0828 -94.8281 122° Southeast 235 270 21,000  Level Minneapolis Center
08:42PM 46.0489 -94.7472 121° Southeast 237 273 21,000  Level Minneapolis Center
08:43PM 46.0128 -94.6642 122° Southeast 244 281 21,000  Level Minneapolis Center
08:44PM 45.9706 -94.5681 122° Southeast 239 275 21,000 -660 Level Minneapolis Center
08:45PM 45.9325 -94.4844 123° Southeast 247 284 19,700 -1,320 Descending Minneapolis Center
08:46PM 45.8917 -94.3878 121° Southeast 272 313 18,300 -1,380 Descending Minneapolis Center
08:47PM 45.8519 -94.2942 121° Southeast 277 319 16,900 -1,380 Descending Minneapolis Center
08:48PM 45.8128 -94.2050 122° Southeast 269 310 15,500 -1,500 Descending Minneapolis Center
08:49PM 45.7731 -94.1183 123° Southeast 264 304 13,900 -1,740 Descending Minneapolis Center
08:50PM 45.7272 -94.0114 122° Southeast 264 304 12,000 -1,620 Descending Minneapolis Center
08:51PM 45.6883 -93.9242 123° Southeast 258 297 10,600 -1,440 Descending Minneapolis Center
08:52PM 45.6511 -93.8419 123° Southeast 249 287 9,100 -1,380 Descending Minneapolis Center
08:53PM 45.6181 -93.7625 121° Southeast 233 268 7,800 -1,020 Descending Minneapolis Center
08:54PM 45.5864 -93.6939 123° Southeast 211 243 7,000 -420 Descending Minneapolis Center
08:55PM 45.5561 -93.6247 122° Southeast 206 237 7,000 -60 Level Minneapolis Center
08:56PM 45.5203 -93.5372 120° Southeast 214 246 6,900 -420 Descending Minneapolis Center
08:57PM 45.4900 -93.4575 118° Southeast 228 262 6,200 -660 Descending Minneapolis Center
08:59PM 45.4578 -93.3797 121° Southeast 228 262 5,600 -720 Descending Minneapolis Center
09:00PM 45.4242 -93.3058 123° Southeast 224 258 4,800 -780 Descending Minneapolis Center
09:01PM 45.3881 -93.2311 125° Southeast 228 262 4,100 -420 Descending Minneapolis Center
09:02PM 45.3528 -93.1619 126° Southeast 219 252 4,000 -60 Descending Minneapolis Center
09:03PM 45.3139 -93.0864 126° Southeast 200 230 4,000  Level Minneapolis Center
09:04PM 45.2728 -93.0136 129° Southeast 198 228 4,000  Level Minneapolis Center
09:05PM 45.2128 -93.0033 173° South 213 245 4,000  Level Minneapolis Center
09:06PM 45.1550 -92.9906 171° South 212 244 4,000 -300 Level Minneapolis Center
09:07PM 45.0942 -92.9775 171° South 220 253 3,400 -540 Descending Minneapolis Center
09:08PM 45.0322 -92.9614 170° South 225 259 3,000 -240 Descending Minneapolis Center
09:09PM 44.9708 -92.9411 167° South 191 220 3,000 -240 Level Minneapolis Center
09:10PM 44.9269 -92.8897 140° Southeast 205 236 2,600 -300 Descending Minneapolis Center
09:11PM 44.8814 -92.8397 142° Southeast 207 238 2,500 -60 Descending Minneapolis Center
09:12PM 44.8317 -92.8603 196° South 203 234 2,500  Level Minneapolis Center
09:13PM 44.7928 -92.9172 226° Southwest 213 245 2,500  Level Minneapolis Center
09:14PM 44.8289 -92.9619 319° Northwest 186 214 2,500 -240 Level Minneapolis Center
09:15PM 44.8697 -92.9997 327° Northwest 177 204 2,100 -600 Descending Minneapolis Center
09:16PM 44.9042 -93.0311 327° Northwest 126 145 1,300 -540 Descending Minneapolis Center
09:17PM 44.9306 -93.0567 326° Northwest 113 130 1,100 -240 Descending Minneapolis Center